Time;durP1;ratioP1;P1;durP2;ratioP2;P2;SDS_P1;SDS_P2;PMS_P1;PMS_P2;Temp;Humidity;BMP_temperature;BMP_pressure;BME280_temperature;BME280_humidity;BME280_pressure;Samples;Min_cycle;Max_cycle;Signal;HPM_P1;HPM_P2
2023/03/17 00:04:29;;;;;;;0.73;0.65;;;;;;;7.75;100.00;100877.56;10517668;28;20044;-83
2023/03/17 00:09:30;;;;;;;1.13;0.45;;;;;;;7.82;100.00;100878.66;10519583;28;20560;-83
2023/03/17 00:14:32;;;;;;;0.45;0.40;;;;;;;8.20;100.00;100873.16;10514864;28;20048;-83
2023/03/17 00:19:34;;;;;;;0.15;0.13;;;;;;;7.96;100.00;100881.75;10532221;28;20093;-83
2023/03/17 00:24:36;;;;;;;0.15;0.05;;;;;;;8.04;100.00;100890.56;10531273;28;20044;-82
2023/03/17 00:29:39;;;;;;;0.20;0.20;;;;;;;8.00;100.00;100898.13;10527023;28;20098;-84
2023/03/17 00:34:41;;;;;;;0.10;0.10;;;;;;;7.89;100.00;100898.59;10541500;28;20039;-83
2023/03/17 00:39:42;;;;;;;0.20;0.20;;;;;;;8.00;100.00;100877.59;10523272;28;20131;-78
2023/03/17 00:44:44;;;;;;;0.57;0.30;;;;;;;7.81;100.00;100892.31;10526759;28;20044;-79
2023/03/17 00:49:47;;;;;;;0.45;0.25;;;;;;;7.60;100.00;100885.56;10558833;27;20039;-79
2023/03/17 00:54:49;;;;;;;0.35;0.17;;;;;;;7.82;100.00;100873.53;10519502;28;20433;-78
2023/03/17 00:59:51;;;;;;;0.00;0.00;;;;;;;7.80;100.00;100859.78;10531962;28;20105;-79
2023/03/17 01:04:52;;;;;;;0.55;0.40;;;;;;;7.63;100.00;100852.31;10526537;28;20101;-78
2023/03/17 01:10:19;;;;;;;0.13;0.13;;;;;;;7.28;100.00;100854.44;10531025;28;20077;-78
2023/03/17 01:15:27;;;;;;;0.08;0.08;;;;;;;7.39;100.00;100852.28;10509136;28;20074;-78
2023/03/17 01:20:32;;;;;;;0.50;0.50;;;;;;;7.23;100.00;100847.38;10531128;28;20490;-78
2023/03/17 01:25:34;;;;;;;0.20;0.20;;;;;;;7.43;100.00;100836.22;10540765;28;20106;-78
2023/03/17 01:30:39;;;;;;;0.00;0.00;;;;;;;7.14;100.00;100817.16;10521002;28;20052;-78
2023/03/17 01:35:42;;;;;;;0.00;0.00;;;;;;;7.21;100.00;100816.59;10523686;28;20051;-79
2023/03/17 01:40:49;;;;;;;0.47;0.43;;;;;;;7.19;100.00;100815.63;10522833;28;20048;-78
2023/03/17 01:46:10;;;;;;;0.15;0.10;;;;;;;6.77;100.00;100819.19;10523269;28;20051;-79
2023/03/17 01:51:37;;;;;;;0.45;0.43;;;;;;;6.50;100.00;100814.66;10520264;28;20392;-78
2023/03/17 01:56:42;;;;;;;0.20;0.10;;;;;;;7.28;100.00;100810.88;10487439;28;20139;-77
2023/03/17 02:01:48;;;;;;;0.00;0.00;;;;;;;6.67;100.00;100823.03;10557459;28;20077;-77
2023/03/17 02:06:50;;;;;;;4.05;0.52;;;;;;;6.81;100.00;100810.78;10538854;28;20036;-78
2023/03/17 02:12:01;;;;;;;0.25;0.25;;;;;;;6.82;100.00;100802.28;10512389;28;20048;-78
2023/03/17 02:17:03;;;;;;;0.15;0.15;;;;;;;6.89;100.00;100807.66;10551749;28;20044;-78
2023/03/17 02:22:05;;;;;;;0.00;0.00;;;;;;;6.82;100.00;100798.84;10538897;28;20483;-78
2023/03/17 02:27:13;;;;;;;0.20;0.10;;;;;;;6.97;100.00;100790.91;10538343;28;20384;-79
2023/03/17 02:32:18;;;;;;;0.10;0.10;;;;;;;7.16;100.00;100792.47;10521764;28;20483;-78
2023/03/17 02:37:19;;;;;;;2.75;2.08;;;;;;;6.94;100.00;100791.66;10518867;28;20505;-83
2023/03/17 02:42:21;;;;;;;0.22;0.22;;;;;;;6.94;100.00;100791.66;10532552;28;20044;-84
2023/03/17 02:47:22;;;;;;;0.00;0.00;;;;;;;6.87;100.00;100784.56;10511149;28;20040;-83
2023/03/17 02:52:25;;;;;;;0.08;0.08;;;;;;;6.82;100.00;100786.03;10535415;28;20054;-83
2023/03/17 02:57:26;;;;;;;0.00;0.00;;;;;;;6.59;100.00;100783.44;10514460;28;20063;-83
2023/03/17 03:02:28;;;;;;;1.05;0.57;;;;;;;6.70;100.00;100780.44;10505599;28;20108;-83
2023/03/17 03:07:31;;;;;;;0.10;0.10;;;;;;;6.69;100.00;100778.69;10523318;28;20040;-83
2023/03/17 03:12:33;;;;;;;0.43;0.28;;;;;;;6.69;100.00;100769.34;10525917;28;20086;-83
2023/03/17 03:17:34;;;;;;;0.32;0.10;;;;;;;6.53;100.00;100767.84;10546738;28;20069;-83
2023/03/17 03:22:36;;;;;;;0.10;0.05;;;;;;;6.62;100.00;100777.59;10530772;28;20047;-83
2023/03/17 03:27:37;;;;;;;0.35;0.28;;;;;;;6.65;100.00;100781.16;10541542;28;20193;-83
2023/03/17 03:32:39;;;;;;;0.40;0.38;;;;;;;6.58;100.00;100766.38;10521531;28;20052;-83
2023/03/17 03:37:41;;;;;;;0.00;0.00;;;;;;;6.65;100.00;100762.34;10525507;28;20076;-83
2023/03/17 03:42:42;;;;;;;0.90;0.55;;;;;;;6.83;100.00;100769.88;10524310;28;20051;-83
2023/03/17 03:47:44;;;;;;;0.93;0.50;;;;;;;6.79;100.00;100775.69;10541593;28;20098;-83
2023/03/17 03:52:46;;;;;;;1.00;0.25;;;;;;;6.99;100.00;100768.78;10541828;28;20465;-84
2023/03/17 03:57:47;;;;;;;0.85;0.70;;;;;;;6.97;100.00;100766.16;10526219;28;20049;-83
2023/03/17 04:02:49;;;;;;;0.10;0.05;;;;;;;6.94;100.00;100765.16;10548740;28;20065;-83
2023/03/17 04:07:51;;;;;;;0.25;0.25;;;;;;;7.03;100.00;100762.09;10528727;28;20122;-83
2023/03/17 04:12:54;;;;;;;0.17;0.10;;;;;;;6.89;100.00;100754.72;10534517;28;20458;-82
2023/03/17 04:17:56;;;;;;;0.22;0.10;;;;;;;6.97;100.00;100755.91;10533119;28;20599;-83
2023/03/17 04:22:57;;;;;;;2.50;0.45;;;;;;;6.80;100.00;100760.38;10504837;28;20074;-83
2023/03/17 04:27:59;;;;;;;0.40;0.40;;;;;;;6.63;100.00;100769.97;10520362;28;20043;-84
2023/03/17 04:33:01;;;;;;;0.03;0.03;;;;;;;6.48;100.00;100754.00;10533140;28;20051;-83
2023/03/17 04:38:03;;;;;;;0.30;0.10;;;;;;;6.43;100.00;100776.84;10538494;28;20040;-82
2023/03/17 04:43:05;;;;;;;0.00;0.00;;;;;;;6.25;100.00;100787.19;10527267;28;20050;-83
2023/03/17 04:48:07;;;;;;;1.00;0.47;;;;;;;5.98;100.00;100777.53;10540921;28;20054;-83
2023/03/17 04:53:08;;;;;;;0.75;0.03;;;;;;;5.98;100.00;100762.19;10522390;28;20048;-83
2023/03/17 04:58:10;;;;;;;0.25;0.15;;;;;;;5.86;100.00;100777.88;10536956;28;20119;-83
2023/03/17 05:03:21;;;;;;;0.00;0.00;;;;;;;5.85;100.00;100765.00;10546756;28;20051;-83
2023/03/17 05:08:28;;;;;;;0.15;0.15;;;;;;;6.29;100.00;100767.72;10527762;28;20097;-83
2023/03/17 05:13:30;;;;;;;0.00;0.00;;;;;;;6.08;100.00;100760.03;10500342;28;20051;-83
2023/03/17 05:18:32;;;;;;;0.35;0.30;;;;;;;5.96;100.00;100774.03;10537303;28;20069;-83
2023/03/17 05:23:34;;;;;;;0.17;0.17;;;;;;;6.33;100.00;100775.59;10521976;28;20043;-83
2023/03/17 05:28:36;;;;;;;0.00;0.00;;;;;;;6.29;100.00;100773.69;10560820;27;20040;-84
2023/03/17 05:33:37;;;;;;;0.00;0.00;;;;;;;6.59;100.00;100783.44;10532599;28;20517;-79
2023/03/17 05:38:40;;;;;;;1.42;0.75;;;;;;;6.70;100.00;100776.22;10526683;28;20054;-80
2023/03/17 05:43:42;;;;;;;0.00;0.00;;;;;;;6.84;100.00;100779.31;10542100;28;20093;-79
2023/03/17 05:48:44;;;;;;;0.28;0.28;;;;;;;7.03;100.00;100765.53;10521426;28;20078;-83
2023/03/17 05:53:45;;;;;;;0.00;0.00;;;;;;;7.10;100.00;100761.50;10513157;28;20085;-78
2023/03/17 05:58:47;;;;;;;0.00;0.00;;;;;;;7.17;100.00;100762.59;10540954;28;20040;-77
2023/03/17 06:03:50;;;;;;;0.35;0.30;;;;;;;7.21;100.00;100765.34;10582455;28;20043;-77
2023/03/17 06:08:52;;;;;;;0.40;0.15;;;;;;;7.13;100.00;100766.72;10507115;28;20093;-78
2023/03/17 06:13:53;;;;;;;0.70;0.20;;;;;;;7.19;100.00;100766.09;10522613;28;20048;-77
2023/03/17 06:18:55;;;;;;;0.17;0.17;;;;;;;7.50;100.00;100775.78;10521900;28;20040;-78
2023/03/17 06:23:57;;;;;;;0.15;0.15;;;;;;;7.57;100.00;100769.19;10538947;28;20442;-78
2023/03/17 06:28:58;;;;;;;0.60;0.30;;;;;;;7.51;100.00;100766.41;10511672;28;20044;-78
2023/03/17 06:34:00;;;;;;;0.28;0.22;;;;;;;7.50;100.00;100770.66;10505950;28;20056;-77
2023/03/17 06:39:02;;;;;;;0.20;0.20;;;;;;;7.37;100.00;100773.59;10542129;28;20044;-78
2023/03/17 06:44:04;;;;;;;0.00;0.00;;;;;;;7.35;100.00;100772.66;10580511;28;20044;-78
2023/03/17 06:49:12;;;;;;;0.77;0.63;;;;;;;7.67;100.00;100762.69;10525591;28;20040;-78
2023/03/17 06:54:13;;;;;;;0.10;0.10;;;;;;;7.50;100.00;100765.53;10511637;28;20056;-78
2023/03/17 06:59:15;;;;;;;0.22;0.22;;;;;;;7.54;100.00;100771.63;10496675;28;20059;-78
2023/03/17 07:04:18;;;;;;;0.20;0.20;;;;;;;7.65;100.00;100779.72;10540150;28;20071;-79
2023/03/17 07:09:20;;;;;;;0.45;0.25;;;;;;;7.82;100.00;100783.75;10515629;28;20055;-78
2023/03/17 07:14:22;;;;;;;0.45;0.30;;;;;;;8.16;100.00;100766.09;10544018;28;20044;-78
2023/03/17 07:19:26;;;;;;;0.20;0.20;;;;;;;8.37;100.00;100761.66;10554297;28;20044;-77
2023/03/17 07:24:31;;;;;;;0.00;0.00;;;;;;;8.48;100.00;100764.59;10569316;28;20040;-76
2023/03/17 07:29:33;;;;;;;0.17;0.17;;;;;;;8.94;100.00;100759.16;10562609;28;20051;-77
2023/03/17 07:34:35;;;;;;;2.17;0.57;;;;;;;8.97;100.00;100743.84;10536498;28;20098;-77
2023/03/17 07:39:38;;;;;;;0.00;0.00;;;;;;;8.99;100.00;100747.31;10520923;28;20555;-76
2023/03/17 07:44:43;;;;;;;0.10;0.10;;;;;;;8.80;100.00;100762.19;10535607;28;20718;-76
2023/03/17 07:49:44;;;;;;;0.05;0.03;;;;;;;9.04;100.00;100768.91;10540266;28;20048;-77
2023/03/17 07:54:46;;;;;;;0.10;0.10;;;;;;;9.09;100.00;100769.91;10501740;28;20151;-77
2023/03/17 07:59:48;;;;;;;0.00;0.00;;;;;;;9.12;100.00;100774.25;10582630;28;20411;-78
2023/03/17 08:04:50;;;;;;;0.25;0.25;;;;;;;9.32;100.00;100773.13;10545465;28;20047;-78
2023/03/17 08:09:52;;;;;;;0.00;0.00;;;;;;;9.41;100.00;100785.41;10537724;28;20050;-77
2023/03/17 08:14:54;;;;;;;0.22;0.22;;;;;;;9.56;100.00;100782.38;10531426;28;20101;-78
2023/03/17 08:19:56;;;;;;;0.05;0.05;;;;;;;9.64;100.00;100769.75;10552814;28;20048;-76
2023/03/17 08:24:57;;;;;;;0.20;0.10;;;;;;;9.73;100.00;100777.69;10531532;28;20047;-76
2023/03/17 08:29:59;;;;;;;0.57;0.47;;;;;;;9.77;100.00;100766.69;10544124;28;20090;-77
2023/03/17 08:35:01;;;;;;;0.43;0.43;;;;;;;10.12;100.00;100758.16;10544030;28;20078;-77
2023/03/17 08:40:04;;;;;;;0.22;0.22;;;;;;;10.52;100.00;100748.84;10525947;28;20051;-77
2023/03/17 08:45:06;;;;;;;0.57;0.30;;;;;;;10.87;100.00;100738.44;10532354;28;20053;-77
2023/03/17 08:50:14;;;;;;;0.43;0.43;;;;;;;10.46;100.00;100754.69;10522253;28;20037;-77
2023/03/17 08:55:17;;;;;;;0.10;0.10;;;;;;;10.39;100.00;100757.97;10560848;28;20039;-83
2023/03/17 09:00:19;;;;;;;0.50;0.35;;;;;;;10.35;100.00;100761.28;10524015;28;20419;-83
2023/03/17 09:05:21;;;;;;;1.48;1.38;;;;;;;10.46;100.00;100761.56;10535346;28;20040;-82
2023/03/17 09:10:23;;;;;;;2.22;0.90;;;;;;;10.73;100.00;100757.88;10525255;28;20040;-82
2023/03/17 09:15:24;;;;;;;0.22;0.22;;;;;;;11.08;100.00;100753.53;10544151;27;20044;-82
2023/03/17 09:20:26;;;;;;;0.40;0.30;;;;;;;11.51;100.00;100750.06;10514632;28;20047;-82
2023/03/17 09:25:28;;;;;;;0.47;0.32;;;;;;;11.53;100.00;100756.16;10525851;28;20039;-83
2023/03/17 09:30:31;;;;;;;0.75;0.10;;;;;;;11.46;100.00;100762.91;10540616;28;20108;-83
2023/03/17 09:35:33;;;;;;;0.17;0.17;;;;;;;11.42;100.00;100743.91;10536818;28;20055;-82
2023/03/17 09:40:42;;;;;;;0.25;0.25;;;;;;;11.47;100.00;100730.22;10534256;28;20101;-83
2023/03/17 09:45:44;;;;;;;0.25;0.25;;;;;;;12.32;100.00;100758.44;10539137;28;20552;-83
2023/03/17 09:50:53;;;;;;;0.13;0.13;;;;;;;11.99;100.00;100764.78;10535978;28;20044;-82
2023/03/17 09:55:57;;;;;;;0.43;0.43;;;;;;;12.85;100.00;100770.47;10516370;28;20101;-83
2023/03/17 10:01:00;;;;;;;0.20;0.20;;;;;;;12.91;100.00;100772.28;10561897;28;20065;-84
2023/03/17 10:06:42;;;;;;;0.10;0.10;;;;;;;12.33;100.00;100775.69;10517081;28;20043;-83
2023/03/17 10:11:49;;;;;;;0.80;0.75;;;;;;;13.73;100.00;100762.09;10479339;28;20055;-83
2023/03/17 10:17:11;;;;;;;0.10;0.10;;;;;;;13.22;100.00;100754.56;10557991;27;20373;-83
2023/03/17 10:22:35;;;;;;;0.55;0.43;;;;;;;13.36;100.00;100746.97;10492455;28;20056;-83
2023/03/17 10:27:37;;;;;;;0.00;0.00;;;;;;;12.81;100.00;100754.88;10538592;28;20045;-82
2023/03/17 10:32:39;;;;;;;0.35;0.30;;;;;;;12.85;100.00;100764.41;10521124;28;20049;-83
2023/03/17 10:37:45;;;;;;;0.52;0.17;;;;;;;13.22;100.00;100749.38;10526353;28;20067;-83
2023/03/17 10:42:51;;;;;;;0.22;0.17;;;;;;;13.87;100.00;100734.63;10524364;28;20051;-83
2023/03/17 10:47:56;;;;;;;0.20;0.20;;;;;;;13.98;100.00;100742.50;10557168;28;20094;-83
2023/03/17 10:53:02;;;;;;;1.65;0.32;;;;;;;13.73;100.00;100736.22;10522565;28;20044;-82
2023/03/17 10:58:18;;;;;;;0.60;0.50;;;;;;;13.94;100.00;100741.59;10515345;28;20406;-83
2023/03/17 11:03:27;;;;;;;2.90;0.52;;;;;;;13.82;100.00;100738.88;10553342;28;20076;-82
2023/03/17 11:08:34;;;;;;;0.47;0.40;;;;;;;13.29;100.00;100738.25;10516250;28;20047;-82
2023/03/17 11:13:36;;;;;;;0.30;0.30;;;;;;;13.30;100.00;100736.56;10533541;28;20036;-83
2023/03/17 11:18:39;;;;;;;0.10;0.10;;;;;;;13.69;100.00;100716.31;10515034;28;20101;-82
2023/03/17 11:23:40;;;;;;;0.35;0.25;;;;;;;14.07;100.00;100718.38;10566749;28;20040;-82
2023/03/17 11:28:49;;;;;;;0.55;0.38;;;;;;;14.48;100.00;100712.66;10517206;28;20040;-82
2023/03/17 11:34:04;;;;;;;0.30;0.20;;;;;;;15.25;100.00;100700.94;10526101;28;20884;-83
2023/03/17 11:39:39;;;;;;;1.08;0.80;;;;;;;15.42;100.00;100694.09;10541634;28;20118;-82
2023/03/17 11:45:22;;;;;;;1.25;0.40;;;;;;;15.15;100.00;100710.44;10516322;28;20076;-83
2023/03/17 11:50:45;;;;;;;0.00;0.00;;;;;;;15.68;100.00;100709.72;10556438;28;20101;-82
2023/03/17 11:55:54;;;;;;;3.38;1.00;;;;;;;15.84;100.00;100708.03;10534284;28;20044;-84
2023/03/17 12:00:59;;;;;;;0.35;0.28;;;;;;;15.38;100.00;100718.28;10560936;28;20039;-83
2023/03/17 12:06:06;;;;;;;1.27;0.47;;;;;;;15.14;100.00;100714.78;10572060;27;20040;-83
2023/03/17 12:11:13;;;;;;;1.35;0.47;;;;;;;14.89;100.00;100717.25;10547692;28;20047;-82
2023/03/17 12:16:30;;;;;;;0.20;0.20;;;;;;;14.94;100.00;100695.63;10552428;28;20033;-82
2023/03/17 12:21:46;;;;;;;1.15;1.08;;;;;;;16.65;100.00;100687.16;10531444;28;20048;-83
2023/03/17 12:32:38;;;;;;;0.70;0.63;;;;;;;16.29;100.00;100694.19;10530363;28;20044;-83
2023/03/17 12:37:40;;;;;;;0.20;0.20;;;;;;;15.99;100.00;100680.34;10544400;28;20040;-81
2023/03/17 12:42:56;;;;;;;0.25;0.22;;;;;;;16.33;100.00;100685.53;10523227;28;20091;-82
2023/03/17 12:48:11;;;;;;;0.75;0.50;;;;;;;16.36;100.00;100664.69;10532914;28;20044;-83
2023/03/17 12:53:32;;;;;;;0.30;0.28;;;;;;;15.89;100.00;100673.41;10513588;28;20059;-83
2023/03/17 12:58:43;;;;;;;0.45;0.40;;;;;;;15.27;100.00;100684.53;10545034;28;20411;-83
2023/03/17 13:03:56;;;;;;;0.13;0.13;;;;;;;15.46;100.00;100680.25;10534721;28;20044;-83
2023/03/17 13:09:26;;;;;;;0.43;0.20;;;;;;;15.54;100.00;100682.88;10518606;28;20071;-82
2023/03/17 13:14:37;;;;;;;1.30;0.45;;;;;;;15.66;100.00;100682.88;10572284;27;20040;-83
2023/03/17 13:19:54;;;;;;;0.82;0.20;;;;;;;15.85;100.00;100676.00;10533759;28;20048;-83
2023/03/17 13:25:12;;;;;;;0.40;0.35;;;;;;;16.01;100.00;100678.59;10573321;27;20047;-83
2023/03/17 13:30:25;;;;;;;0.20;0.20;;;;;;;16.26;100.00;100670.81;10517447;28;20036;-82
2023/03/17 13:35:43;;;;;;;4.07;0.63;;;;;;;15.90;100.00;100669.97;10547384;27;20056;-82
2023/03/17 13:41:18;;;;;;;6.32;0.40;;;;;;;15.99;100.00;100659.53;10519224;28;20130;-82
2023/03/17 13:46:32;;;;;;;0.30;0.30;;;;;;;15.71;100.00;100651.72;10485672;28;20491;-83
2023/03/17 13:51:34;;;;;;;5.28;0.40;;;;;;;15.74;100.00;100654.34;10522577;28;20055;-84
2023/03/17 13:56:44;;;;;;;2.17;1.35;;;;;;;15.90;100.00;100654.38;10559246;28;20048;-83
2023/03/17 14:01:56;;;;;;;0.15;0.15;;;;;;;15.67;100.00;100660.38;10528925;28;20040;-83
2023/03/17 14:07:08;;;;;;;0.63;0.60;;;;;;;15.49;100.00;100667.28;10516403;28;20031;-83
2023/03/17 14:12:31;;;;;;;1.50;0.40;;;;;;;15.68;100.00;100660.38;10500818;28;20044;-82
2023/03/17 14:17:49;;;;;;;1.33;0.55;;;;;;;15.65;100.00;100655.16;10547138;27;20093;-83
2023/03/17 14:23:02;;;;;;;0.55;0.30;;;;;;;15.43;100.00;100650.81;10533853;28;20404;-82
2023/03/17 14:28:12;;;;;;;0.32;0.32;;;;;;;15.65;100.00;100638.75;10538161;28;20032;-82
2023/03/17 14:33:22;;;;;;;1.70;0.88;;;;;;;15.29;100.00;100635.22;10512600;28;20044;-83
2023/03/17 14:38:26;;;;;;;0.30;0.30;;;;;;;15.37;100.00;100636.13;10537207;28;20036;-82
2023/03/17 14:43:28;;;;;;;0.98;0.80;;;;;;;15.52;100.00;100633.53;10538999;28;20048;-82
2023/03/17 14:48:32;;;;;;;0.60;0.45;;;;;;;15.36;100.00;100636.97;10537088;28;20113;-83
2023/03/17 14:53:38;;;;;;;1.80;0.47;;;;;;;15.04;100.00;100630.81;10504629;28;20044;-83
2023/03/17 14:58:45;;;;;;;0.75;0.75;;;;;;;15.34;100.00;100612.75;10541287;28;20108;-83
2023/03/17 15:04:03;;;;;;;0.65;0.57;;;;;;;15.29;100.00;100611.88;10534542;28;20077;-83
2023/03/17 15:09:33;;;;;;;0.88;0.60;;;;;;;15.18;100.00;100619.63;10513644;28;20109;-83
2023/03/17 15:14:38;;;;;;;0.40;0.10;;;;;;;14.83;100.00;100625.56;10486905;28;20048;-82
2023/03/17 15:19:43;;;;;;;0.28;0.10;;;;;;;15.26;100.00;100604.94;10523360;28;20488;-82
2023/03/17 15:24:56;;;;;;;0.57;0.32;;;;;;;15.40;100.00;100602.34;10545514;28;20068;-84
2023/03/17 15:29:58;;;;;;;0.10;0.10;;;;;;;15.54;100.00;100595.44;10520981;28;20075;-83
2023/03/17 15:35:00;;;;;;;0.35;0.10;;;;;;;15.53;100.00;100598.91;10541493;28;20054;-83
2023/03/17 15:40:04;;;;;;;0.60;0.50;;;;;;;15.74;100.00;100589.41;10533908;28;20404;-83
2023/03/17 15:45:06;;;;;;;0.15;0.15;;;;;;;15.61;100.00;100596.31;10513797;28;20040;-83
2023/03/17 15:50:16;;;;;;;2.38;1.20;;;;;;;15.42;100.00;100605.84;10531317;28;20055;-83
2023/03/17 15:55:23;;;;;;;1.00;0.93;;;;;;;15.17;100.00;100605.78;10536648;28;20055;-83
2023/03/17 16:00:27;;;;;;;1.05;0.85;;;;;;;15.35;100.00;100583.31;10528042;28;20081;-83
2023/03/17 16:05:33;;;;;;;2.67;1.08;;;;;;;15.51;100.00;100589.38;10551747;28;20055;-83
2023/03/17 16:10:35;;;;;;;0.13;0.13;;;;;;;15.35;100.00;100593.72;10537203;28;20039;-83
2023/03/17 16:15:41;;;;;;;1.17;0.47;;;;;;;15.32;100.00;100583.31;10553332;28;20550;-83
2023/03/17 16:20:46;;;;;;;0.32;0.10;;;;;;;15.22;100.00;100592.81;10539319;28;20089;-83
2023/03/17 16:25:49;;;;;;;0.63;0.63;;;;;;;15.01;100.00;100599.69;10526985;28;20116;-83
2023/03/17 16:30:53;;;;;;;3.70;1.15;;;;;;;14.88;100.00;100603.13;10530242;28;20036;-84
2023/03/17 16:35:56;;;;;;;2.55;1.10;;;;;;;15.04;100.00;100593.66;10535148;28;20051;-84
2023/03/17 16:41:00;;;;;;;1.88;1.08;;;;;;;14.89;100.00;100597.94;10527757;28;20063;-83
2023/03/17 16:46:04;;;;;;;1.27;0.77;;;;;;;14.82;100.00;100603.97;10527262;28;20116;-84
2023/03/17 16:51:09;;;;;;;0.47;0.30;;;;;;;14.61;100.00;100607.28;10494340;28;20052;-84
2023/03/17 16:56:18;;;;;;;0.65;0.20;;;;;;;14.59;100.00;100620.25;10502409;28;20052;-84
2023/03/17 17:01:23;;;;;;;1.63;1.13;;;;;;;14.50;100.00;100607.25;10548998;28;20474;-84
2023/03/17 17:06:25;;;;;;;2.13;1.15;;;;;;;14.26;100.00;100613.16;10528878;28;20085;-83
2023/03/17 17:11:26;;;;;;;2.28;1.27;;;;;;;14.25;100.00;100617.50;10529886;28;20075;-83
2023/03/17 17:16:34;;;;;;;1.77;1.20;;;;;;;14.17;100.00;100621.75;10526383;28;20071;-83
2023/03/17 17:21:35;;;;;;;3.35;1.65;;;;;;;14.03;100.00;100615.63;10529321;28;20097;-82
2023/03/17 17:26:38;;;;;;;0.75;0.70;;;;;;;13.93;100.00;100625.03;10526792;28;20055;-83
2023/03/17 17:31:40;;;;;;;0.50;0.32;;;;;;;13.85;100.00;100622.38;10514423;28;20108;-84
2023/03/17 17:36:41;;;;;;;1.48;0.75;;;;;;;13.88;100.00;100626.72;10540950;28;20421;-77
2023/03/17 17:41:43;;;;;;;0.98;0.57;;;;;;;13.79;100.00;100632.69;10542417;28;20044;-78
2023/03/17 17:46:45;;;;;;;0.45;0.40;;;;;;;13.68;100.00;100634.31;10538144;28;20044;-77
2023/03/17 17:51:46;;;;;;;3.30;2.00;;;;;;;13.79;100.00;100628.38;10531989;28;20056;-76
2023/03/17 17:56:48;;;;;;;4.28;1.63;;;;;;;13.85;100.00;100632.75;10523047;28;20055;-76
2023/03/17 18:01:49;;;;;;;5.47;1.83;;;;;;;13.86;100.00;100629.31;10514957;28;20048;-76
2023/03/17 18:06:51;;;;;;;6.30;3.08;;;;;;;13.82;100.00;100631.84;10563491;27;20097;-77
2023/03/17 18:11:53;;;;;;;2.47;1.42;;;;;;;13.79;100.00;100627.50;10558740;28;20543;-76
2023/03/17 18:16:55;;;;;;;0.90;0.63;;;;;;;13.77;100.00;100629.22;10554160;28;20043;-76
2023/03/17 18:21:56;;;;;;;2.78;1.80;;;;;;;13.72;100.00;100631.75;10562252;28;20051;-77
2023/03/17 18:26:58;;;;;;;2.83;1.58;;;;;;;13.59;100.00;100630.78;10532245;28;20119;-76
2023/03/17 18:32:00;;;;;;;2.33;1.02;;;;;;;13.53;100.00;100625.56;10539926;28;20040;-76
2023/03/17 18:37:02;;;;;;;0.73;0.25;;;;;;;13.44;100.00;100635.84;10499592;28;20048;-78
2023/03/17 18:42:04;;;;;;;0.43;0.43;;;;;;;13.15;100.00;100633.75;10539527;28;20043;-76
2023/03/17 18:47:06;;;;;;;1.17;0.43;;;;;;;13.23;100.00;100645.06;10551658;28;20090;-76
2023/03/17 18:52:08;;;;;;;0.25;0.20;;;;;;;13.14;100.00;100642.41;10535420;28;20040;-76
2023/03/17 18:57:09;;;;;;;0.32;0.28;;;;;;;13.21;100.00;100648.47;10539368;28;20517;-76
2023/03/17 19:02:11;;;;;;;0.47;0.47;;;;;;;13.07;100.00;100651.78;10554843;28;20040;-77
2023/03/17 19:07:13;;;;;;;0.40;0.30;;;;;;;12.76;100.00;100660.91;10546733;28;20517;-77
2023/03/17 19:12:17;;;;;;;0.10;0.10;;;;;;;12.79;100.00;100655.75;10565295;28;20067;-82
2023/03/17 19:17:19;;;;;;;0.13;0.10;;;;;;;12.64;100.00;100657.28;10535107;28;20499;-83
2023/03/17 19:22:21;;;;;;;0.38;0.32;;;;;;;12.70;100.00;100657.38;10556306;28;20044;-82
2023/03/17 19:27:23;;;;;;;0.00;0.00;;;;;;;12.69;100.00;100662.53;10533987;28;20452;-82
2023/03/17 19:32:24;;;;;;;0.80;0.13;;;;;;;12.65;100.00;100655.59;10547092;28;20113;-82
2023/03/17 19:37:26;;;;;;;10.57;1.02;;;;;;;13.19;100.00;100651.06;10557871;28;20040;-82
2023/03/17 19:42:28;;;;;;;2.05;1.23;;;;;;;13.10;100.00;100651.84;10513130;28;20523;-82
2023/03/17 19:47:29;;;;;;;0.52;0.32;;;;;;;13.26;100.00;100649.41;10533492;28;20039;-83
2023/03/17 19:52:31;;;;;;;0.70;0.20;;;;;;;11.85;100.00;100662.97;10537859;28;20556;-82
2023/03/17 19:57:33;;;;;;;10.35;0.80;;;;;;;12.35;100.00;100657.75;10533466;28;20040;-82
2023/03/17 20:02:34;;;;;;;0.00;0.00;;;;;;;12.35;100.00;100670.66;10549132;28;20074;-82
2023/03/17 20:07:36;;;;;;;0.63;0.43;;;;;;;12.14;100.00;100671.19;10554072;28;20490;-82
2023/03/17 20:12:39;;;;;;;0.77;0.73;;;;;;;12.21;100.00;100677.34;10533869;28;20414;-82
2023/03/17 20:17:41;;;;;;;3.53;0.68;;;;;;;12.15;100.00;100683.28;10548834;28;20090;-82
2023/03/17 20:22:44;;;;;;;0.45;0.45;;;;;;;11.81;100.00;100685.28;10536269;28;20453;-84
2023/03/17 20:27:45;;;;;;;0.60;0.43;;;;;;;11.94;100.00;100678.63;10540052;28;20445;-83
2023/03/17 20:32:47;;;;;;;0.43;0.32;;;;;;;11.66;100.00;100683.28;10550769;28;20056;-83
2023/03/17 20:37:51;;;;;;;0.60;0.35;;;;;;;11.90;100.00;100684.56;10519924;28;20036;-83
2023/03/17 20:42:53;;;;;;;0.10;0.10;;;;;;;11.49;100.00;100684.69;10523221;28;20075;-83
2023/03/17 20:47:54;;;;;;;0.10;0.10;;;;;;;11.54;100.00;100683.06;10533201;28;20052;-84
2023/03/17 20:52:56;;;;;;;0.32;0.30;;;;;;;11.30;100.00;100686.06;10540315;28;20284;-83
2023/03/17 20:57:58;;;;;;;0.20;0.20;;;;;;;11.53;100.00;100694.22;10543095;28;20043;-83
2023/03/17 21:03:00;;;;;;;0.38;0.20;;;;;;;11.57;100.00;100699.47;10526843;28;20036;-83
2023/03/17 21:08:04;;;;;;;0.25;0.25;;;;;;;11.72;100.00;100704.06;10527949;28;20070;-83
2023/03/17 21:13:06;;;;;;;0.90;0.30;;;;;;;11.77;100.00;100713.59;10535461;28;20449;-83
2023/03/17 21:18:07;;;;;;;0.10;0.10;;;;;;;11.67;100.00;100716.00;10564466;27;20565;-83
2023/03/17 21:23:09;;;;;;;2.45;1.00;;;;;;;11.93;100.00;100720.75;10543019;28;20499;-83
2023/03/17 21:28:12;;;;;;;0.28;0.28;;;;;;;12.03;100.00;100714.94;10524274;28;20040;-83
2023/03/17 21:33:17;;;;;;;0.80;0.32;;;;;;;11.87;100.00;100712.91;10529529;28;20058;-83
2023/03/17 21:38:18;;;;;;;0.47;0.43;;;;;;;11.88;100.00;100720.69;10548863;28;20130;-84
2023/03/17 21:43:20;;;;;;;0.30;0.30;;;;;;;11.93;100.00;100718.19;10531057;28;20079;-82
2023/03/17 21:48:22;;;;;;;5.07;0.50;;;;;;;11.88;100.00;100715.50;10558749;27;20063;-82
2023/03/17 21:53:24;;;;;;;1.90;0.55;;;;;;;11.71;100.00;100707.47;10546726;28;20078;-82
2023/03/17 21:58:26;;;;;;;1.08;0.52;;;;;;;11.69;100.00;100714.31;10525219;28;20033;-82
2023/03/17 22:03:28;;;;;;;0.45;0.20;;;;;;;11.82;100.00;100719.69;10520269;28;20089;-82
2023/03/17 22:08:30;;;;;;;0.75;0.50;;;;;;;11.21;100.00;100722.81;10515945;28;20044;-82
2023/03/17 22:13:35;;;;;;;1.70;0.57;;;;;;;11.32;100.00;100723.94;10540124;28;20055;-82
2023/03/17 22:18:37;;;;;;;1.75;0.57;;;;;;;11.13;100.00;100720.09;10513260;28;20051;-82
2023/03/17 22:23:40;;;;;;;0.47;0.20;;;;;;;11.14;100.00;100724.44;10515481;28;20410;-82
2023/03/17 22:28:44;;;;;;;0.20;0.17;;;;;;;11.14;100.00;100721.84;10532320;28;20048;-82
2023/03/17 22:33:46;;;;;;;0.95;0.47;;;;;;;11.24;100.00;100725.47;10548247;28;20062;-83
2023/03/17 22:38:49;;;;;;;1.25;0.82;;;;;;;11.24;100.00;100720.31;10560326;28;20031;-82
2023/03/17 22:43:50;;;;;;;0.20;0.20;;;;;;;11.23;100.00;100723.75;10547575;28;20474;-82
2023/03/17 22:48:54;;;;;;;0.28;0.15;;;;;;;11.11;100.00;100725.25;10548891;28;20036;-82
2023/03/17 22:53:56;;;;;;;0.03;0.03;;;;;;;11.24;100.00;100735.78;10537367;28;20388;-83
2023/03/17 22:58:57;;;;;;;1.27;0.40;;;;;;;11.20;100.00;100734.00;10518132;28;20075;-82
2023/03/17 23:03:59;;;;;;;0.20;0.15;;;;;;;11.23;100.00;100731.47;10531962;28;20046;-82
2023/03/17 23:09:01;;;;;;;0.10;0.10;;;;;;;11.24;100.00;100731.50;10548882;28;20063;-82
2023/03/17 23:14:03;;;;;;;0.50;0.50;;;;;;;11.13;100.00;100732.16;10560415;28;20074;-83
2023/03/17 23:19:05;;;;;;;0.47;0.22;;;;;;;11.27;100.00;100733.28;10497413;28;20486;-78